Saturday, August 18, 2018, 1:59 PM GMT
Back to Local

CWNQ, Nicolet Automatic Weather Reporting System

Location: , , Canada Lat: 46.217
Local Time: 1:59 PM GMT (13:59 GMT) Lon: -72.65
Time Zone: GMT Elev: 32 ft

Show me the last for .
Show Coded

Time T Td Feel RH Dir Speed Gust Alt SLP Vis Weather Sky Remarks
2018-08-18 13:00 65 60 - 82 20° 5 - - 29.90 0 None
2018-08-18 12:00 62 59 - 89 20° 3 - - 29.90 0 None
2018-08-18 11:00 61 58 - 90 10° 5 - - 29.88 0 None
2018-08-18 10:00 61 58 - 91 360° 5 - - 29.87 0 None
2018-08-18 09:00 62 59 - 91 350° 5 - - 29.86 0 None
2018-08-18 08:00 63 59 - 86 10° 5 - - 29.84 0 None
2018-08-18 07:00 62 59 - 89 30° 6 - - 29.84 0 None
2018-08-18 06:00 62 60 - 91 10° 7 - - 29.84 0 None
2018-08-18 05:00 63 61 - 94 30° 5 - - 29.85 0 None
2018-08-18 04:00 63 62 - 95 10° 7 - - 29.83 0 None
2018-08-18 02:00 63 62 - 95 10° 8 - - 29.84 0 None
2018-08-18 01:00 63 60 - 90 20° 8 - - 29.84 0 1-hr Precip Total: 0.30"
2018-08-18 00:00 65 65 - 97 50° 5 - - 29.81 0 None
2018-08-17 23:00 65 65 - 96 50° 6 - - 29.83 0 1-hr Precip Total: 0.06"
2018-08-17 22:00 66 65 - 95 50° 5 - - 29.84 0 None
2018-08-17 21:00 66 64 - 95 60° 7 - - 29.86 0 None
2018-08-17 20:00 66 64 - 93 60° 7 - - 29.89 0 None
2018-08-17 19:00 67 64 - 88 60° 8 - - 29.92 0 None
2018-08-17 18:00 69 61 - 75 40° 5 - - 29.94 0 None
2018-08-17 17:00 70 61 - 73 40° 7 - - 29.97 0 None
2018-08-17 16:00 70 61 - 73 40° 6 - - 29.99 0 None
2018-08-17 15:00 71 60 76 68 30° 3 - - 30.02 0 None
2018-08-17 14:00 67 57 - 71 40° 5 - - 30.03 0 None

Support USWX by starting your Amazon purchase here.